Courtland, MS (38620)

8:34 PM CDT on July 27, 2016 (GMT -0500)
Lakewood Village | | Change Station

Elev 315 ft 34.32 °N, 89.92 °W | Updated 3 minutes ago

Overcast
Overcast
76.1 °F
Feels Like 76 °F
N
6.8
Wind Variable Wind from WSW

Today
High -- | Low -- °F
--% Chance of Precip.
Yesterday
High -- | Low -- °F
Precip. -- in
Pressure 29.89 in
Visibility 7.0 miles
Clouds Scattered Clouds 1100 ft
Mostly Cloudy 3700 ft
Overcast 4600 ft
Heat Index 76 °F
Dew Point 74 °F
Humidity 92%
Rainfall 0.11 in
Snow Depth Not available.
6:08 AM 8:05 PM
Last Quarter, 37% visible
METAR KCKM 280135Z AUTO 18005KT 7SM SCT011 BKN037 OVC046 25/25 A2989 RMK A01
Pressure 29.89 in
Visibility 7.0 miles
Clouds Scattered Clouds 1100 ft
Mostly Cloudy 3700 ft
Overcast 4600 ft
Heat Index 76 °F
Dew Point 74 °F
Humidity 92%
Rainfall 0.11 in
Snow Depth Not available.
6:08 AM 8:05 PM
Last Quarter, 37% visible
METAR KCKM 280135Z AUTO 18005KT 7SM SCT011 BKN037 OVC046 25/25 A2989 RMK A01

10-Day Weather Forecast

Almanac

Astronomy

Jul. 27, 2016 Rise Set
Actual Time
Civil Twilight
Nautical Twilight
Astronomical Twilight
Moon
Length of Visible Light
Length of Day
Tomorrow will be .
, % of the Moon is Illuminated

Today's Extremes

State Highs State Lows

Community

WunderPhotos

Upload Photos

1,927,998 photos uploaded!

WunderBlog® & News

Nearby

Air Quality

  Air Quality AQ Index Pollutant
Not available.

Snow Depth

Station Depth Elevation

Earthquake Activity

City Distance Mag. Time & Date
Minimum magnitude displayed is 2.5.

Coastal Water Temperatures

Place Temperature

Stations

Nearby Weather Stations

Station Location Temp. Windchill Dew Point Humidity Wind Precip. Elev Updated Type
                   

Watches & Warnings

There are currently no watches in effect.